Date,TemperatureHighF,TemperatureAvgF,TemperatureLowF,DewpointHighF,DewpointAvgF,DewpointLowF,HumidityHigh,HumidityAvg,HumidityLow,PressureMaxIn,PressureMinIn,WindSpeedMaxMPH,WindSpeedAvgMPH,GustSpeedMaxMPH,PrecipitationSumIn
2012-1-1,42.4,33.7,25.3,33.4,17.4,-0.4,86,55,17,30.38,29.76,26,10,26,0.00
2012-1-2,32.4,23.2,12.2,13.5,7.0,-1.4,74,52,24,30.46,30.37,24,7,24,0.00
2012-1-3,46.8,28.8,9.1,26.3,12.5,4.5,84,54,26,30.38,29.83,21,6,21,0.00
2012-1-4,51.1,40.1,31.3,29.2,25.0,20.5,83,57,31,30.13,29.89,17,5,17,0.00
2012-1-5,68.2,46.9,30.6,29.9,24.7,15.6,78,47,14,29.96,29.59,14,5,14,0.00
2012-1-6,59.9,41.3,30.0,32.4,27.3,22.1,90,60,27,29.91,29.58,23,4,23,0.00
2012-1-7,48.6,33.8,23.0,25.2,22.0,17.4,83,63,35,30.13,29.91,9,2,9,0.00
2012-1-8,53.1,32.8,23.2,29.0,22.9,19.3,93,70,29,30.23,30.13,6,1,6,0.00
2012-1-9,56.1,37.3,23.9,29.0,22.0,18.1,84,58,23,30.14,29.92,14,4,14,0.00
2012-1-10,60.1,41.1,28.0,29.0,24.1,20.0,79,54,24,29.92,29.59,12,3,12,0.00
2012-1-11,42.1,29.7,18.9,32.9,22.0,7.7,91,73,62,29.81,29.50,40,12,40,0.02
2012-1-12,18.9,12.3,7.2,7.9,3.3,-1.7,80,67,55,29.88,29.78,27,11,27,0.00
2012-1-13,28.4,15.4,3.7,8.5,2.3,-2.0,79,58,30,29.97,29.81,12,4,12,0.00
2012-1-14,45.0,29.7,19.6,26.1,17.3,7.3,82,61,40,30.04,29.74,13,5,13,0.00
2012-1-15,57.9,40.3,21.2,25.5,20.1,15.2,79,48,21,30.02,29.62,21,6,21,0.00
2012-1-16,47.1,37.2,25.3,27.1,24.4,17.3,81,60,43,29.73,29.55,21,6,21,0.00
2012-1-17,25.3,16.4,3.6,19.1,8.9,-0.5,91,73,50,30.23,29.70,24,8,24,0.00
2012-1-18,37.8,19.9,-0.4,20.9,11.5,-4.3,88,71,47,30.20,29.69,25,6,25,0.00
2012-1-19,21.9,9.5,3.0,15.0,-3.9,-10.6,79,55,32,30.04,29.79,21,7,21,0.00
2012-1-20,15.4,10.9,5.9,4.8,1.0,-5.9,75,64,53,30.08,29.81,17,8,17,0.00
2012-1-21,25.0,17.5,9.7,21.1,12.1,3.5,85,79,74,30.08,29.62,21,7,21,0.00
2012-1-22,42.8,34.2,25.0,40.8,32.6,21.1,98,94,84,29.62,29.28,20,7,20,0.07
2012-1-23,30.4,27.1,20.1,27.1,22.0,16.4,94,81,72,29.94,29.40,19,8,19,0.00
2012-1-24,39.4,26.4,10.6,30.5,21.3,7.8,92,81,60,30.14,29.94,13,4,13,0.00
2012-1-25,50.0,37.6,27.9,32.6,29.2,25.7,94,73,47,30.11,29.81,12,3,12,0.00
2012-1-26,51.6,35.1,24.3,35.1,28.3,22.8,96,78,49,29.81,29.71,21,5,21,0.01
2012-1-27,40.1,32.2,25.5,30.4,23.8,18.8,89,72,53,30.03,29.76,24,4,24,0.00
2012-1-28,45.9,32.2,19.9,19.7,13.7,5.3,81,50,21,30.11,30.00,24,8,24,0.00
2012-1-29,48.4,34.4,23.0,18.4,12.7,4.2,65,42,17,30.13,29.83,11,4,11,0.00
2012-1-30,68.7,49.3,35.8,33.5,22.2,8.5,67,41,10,29.84,29.62,20,7,20,0.00
2012-1-31,63.9,48.0,38.1,41.7,33.2,27.2,94,60,28,29.94,29.65,13,5,13,0.00
2012-2-1,62.4,43.5,27.9,31.8,24.6,14.9,88,54,16,30.03,29.94,13,2,13,0.00
2012-2-2,59.2,41.5,25.2,33.6,26.3,20.9,87,59,26,30.13,30.02,9,2,9,0.00
2012-2-3,44.1,39.6,34.5,37.3,34.3,30.4,95,82,62,30.16,29.97,34,11,34,0.45
2012-2-4,34.5,32.6,31.1,32.7,31.0,27.1,98,93,85,30.19,29.97,31,3,31,0.06
2012-2-5,31.1,25.5,19.6,27.4,22.9,17.8,96,90,84,30.26,30.16,0,0,0,0.00
2012-2-6,35.6,26.3,20.5,28.3,23.3,19.1,96,89,70,30.16,30.01,8,1,8,0.06
2012-2-7,35.8,30.4,25.3,30.9,27.0,22.0,93,87,77,30.33,30.05,17,6,17,0.05
2012-2-8,35.4,23.2,13.5,23.7,14.3,8.9,88,71,36,30.35,30.21,8,3,11,0.01
2012-2-9,39.2,28.8,16.2,29.7,24.0,12.8,90,82,67,30.21,29.90,16,4,16,0.01
2012-2-10,33.1,15.7,3.6,29.4,5.8,-5.8,88,65,51,30.38,29.89,27,12,27,0.00
2012-2-11,18.9,7.2,-2.4,3.0,-4.6,-9.9,70,59,38,30.57,30.37,13,5,13,0.00
2012-2-12,36.7,18.6,-2.2,11.5,2.6,-7.5,79,52,28,30.43,29.93,11,4,11,0.00
2012-2-13,32.4,29.6,25.3,31.1,26.0,9.4,98,88,43,29.93,29.59,18,5,18,0.02
2012-2-14,45.7,33.5,23.2,33.9,29.2,22.7,98,85,63,29.75,29.63,12,4,12,0.02
2012-2-15,51.3,35.7,27.7,34.3,30.9,26.9,97,84,51,29.95,29.73,12,3,12,0.01
2012-2-16,45.0,35.5,26.6,31.1,25.7,22.2,92,69,43,30.15,29.95,11,4,11,0.01
2012-2-17,50.7,36.7,27.3,30.8,26.8,20.8,84,68,42,30.10,29.92,13,5,13,0.00
2012-2-18,45.0,30.3,19.4,24.5,20.2,15.7,89,68,39,30.16,30.03,14,3,14,0.00
2012-2-19,49.5,33.6,18.0,28.6,22.4,15.6,93,66,36,30.03,29.89,14,4,14,0.00
2012-2-20,43.0,38.4,32.9,39.5,30.7,20.0,93,75,56,29.92,29.49,24,9,24,0.33
2012-2-21,48.4,39.2,32.9,37.6,30.8,27.0,94,73,48,29.73,29.50,17,7,17,0.00
2012-2-22,56.3,43.4,33.8,35.5,31.6,26.8,79,64,40,29.53,29.30,14,5,14,0.00
2012-2-23,43.5,39.3,30.2,41.2,36.5,29.7,99,90,74,29.63,29.15,24,7,24,0.28
2012-2-24,37.9,30.0,23.4,31.5,26.1,17.6,99,86,58,30.09,29.63,16,2,16,0.05
2012-2-25,38.3,28.4,14.9,22.5,16.8,10.2,83,63,41,30.20,29.73,21,7,21,0.02
2012-2-26,56.5,44.3,30.7,30.2,25.9,20.8,81,51,27,30.11,29.64,23,8,23,0.00
2012-2-27,44.2,30.8,19.9,25.6,18.3,12.6,82,61,36,30.40,30.11,16,6,16,0.00
2012-2-28,55.6,43.2,31.6,54.0,35.9,21.4,98,76,58,30.18,29.21,22,8,22,0.53
2012-2-29,52.3,36.3,28.8,50.7,27.2,23.1,94,70,56,29.75,29.23,36,17,36,0.01
2012-3-1,55.6,37.5,23.7,36.2,29.8,22.3,95,76,47,29.75,29.49,18,6,21,0.00
2012-3-2,49.5,37.5,30.4,31.6,27.2,19.9,95,69,34,29.78,29.52,21,9,21,0.00
2012-3-3,43.0,32.4,23.7,22.7,18.6,14.4,81,58,33,29.83,29.75,21,8,21,0.00
2012-3-4,51.3,34.1,20.1,33.8,24.0,17.3,91,69,41,30.07,29.70,28,7,28,0.00
2012-3-5,54.9,38.4,19.6,26.6,22.2,17.8,94,58,26,30.15,29.73,19,6,19,0.00
2012-3-6,73.2,59.5,44.8,48.3,37.3,26.8,65,46,20,29.73,29.55,27,10,27,0.00
2012-3-7,65.5,50.4,34.2,52.0,41.3,25.8,89,71,57,29.96,29.52,28,11,28,0.01
2012-3-8,53.8,39.4,25.7,25.6,14.9,-4.4,83,44,10,30.27,29.95,23,7,23,0.00
2012-3-9,61.3,43.7,25.3,28.5,16.6,3.6,74,38,13,30.43,30.19,14,5,14,0.00
2012-3-10,70.0,52.2,35.6,29.5,21.6,7.2,67,37,10,30.19,29.96,25,9,25,0.00
2012-3-11,50.7,47.2,43.7,48.1,40.1,29.2,99,79,51,29.99,29.65,18,5,18,0.25
2012-3-12,64.8,52.6,43.5,50.0,46.8,42.7,99,82,56,29.84,29.59,15,5,15,0.06
2012-3-13,81.1,60.6,41.2,50.5,45.1,38.8,98,64,24,29.90,29.73,23,5,23,0.00
2012-3-14,83.7,67.4,58.1,60.9,53.7,46.2,94,65,29,29.82,29.69,21,6,21,0.00
2012-3-15,81.9,64.8,50.4,62.6,54.9,45.0,95,72,41,29.91,29.80,12,3,12,0.00
2012-3-16,77.9,68.0,59.0,63.6,60.0,57.4,98,77,53,29.85,29.73,19,6,19,0.00
2012-3-17,83.3,71.1,63.5,62.0,60.4,56.1,88,71,41,29.77,29.65,23,10,23,0.00
2012-3-18,81.5,71.0,65.5,60.7,59.4,56.7,80,68,46,29.72,29.65,26,10,26,0.00
2012-3-19,75.2,64.6,57.9,62.1,57.9,53.9,94,79,60,29.66,29.52,21,8,21,0.18
2012-3-20,60.3,57.2,55.6,56.2,54.9,53.4,98,92,82,29.78,29.61,13,4,13,0.33
2012-3-21,66.0,60.4,56.3,60.8,57.7,55.2,98,91,80,29.84,29.75,26,8,26,0.06
2012-3-22,69.6,59.2,50.7,58.5,50.1,41.8,97,75,39,29.87,29.75,21,4,24,0.06
2012-3-23,74.5,59.0,45.9,53.4,47.9,40.0,99,71,29,29.85,29.77,11,3,11,0.02
2012-3-24,80.6,63.5,45.0,52.1,42.6,29.5,93,53,17,29.92,29.80,13,3,13,0.00
2012-3-25,85.3,65.3,47.1,58.7,47.9,39.2,90,58,22,29.99,29.89,13,3,13,0.00
2012-3-26,77.4,66.8,60.1,60.3,55.1,49.6,83,67,51,29.97,29.72,23,8,23,0.05
2012-3-27,80.6,69.0,59.7,58.2,43.3,18.2,78,47,11,29.84,29.69,21,9,21,0.00
2012-3-28,78.6,63.3,44.4,49.3,37.6,29.3,87,42,17,29.95,29.81,22,5,22,0.79
2012-3-29,69.3,60.1,52.9,59.7,54.4,46.1,97,82,68,29.85,29.51,27,10,27,1.18
2012-3-30,58.1,56.7,55.6,56.5,55.9,54.9,99,97,95,29.61,29.54,14,3,14,0.00
2012-3-31,87.6,68.1,56.1,61.9,54.4,42.1,93,69,21,29.70,29.53,17,6,17,0.00
2012-4-2,83.7,75.1,65.5,58.8,56.2,53.6,67,52,42,29.65,29.52,10,4,10,0.00
2012-4-3,75.2,62.1,51.3,54.6,49.7,45.5,89,66,43,29.84,29.66,24,7,24,0.00
2012-4-4,61.3,56.1,52.0,48.7,45.7,41.9,86,68,54,29.82,29.70,27,8,27,0.02
2012-4-5,67.1,55.2,44.2,47.9,35.7,28.6,84,51,26,29.98,29.74,19,7,20,0.01
2012-4-6,64.8,52.0,37.8,39.4,32.0,20.4,76,50,20,30.10,29.91,19,7,19,0.00
2012-4-7,65.8,53.8,46.8,50.2,36.9,17.8,95,57,17,30.22,29.91,17,5,17,0.14
2012-4-8,70.9,55.3,35.8,36.4,27.8,13.4,82,41,12,30.27,30.00,21,5,21,0.00
2012-4-9,70.0,56.3,38.8,34.0,21.2,7.9,70,29,10,30.11,30.01,15,5,15,0.00
2012-4-10,63.5,48.9,33.6,29.4,14.8,0.2,64,30,10,30.16,30.06,18,5,18,0.00
2012-4-11,62.6,45.7,29.7,23.2,16.4,3.9,65,35,10,30.25,30.08,14,4,14,0.00
2012-4-12,55.6,46.6,36.3,46.9,35.3,22.6,91,66,39,30.09,29.81,13,5,14,0.25
2012-4-13,73.4,58.1,48.2,61.2,51.7,44.8,97,82,40,29.84,29.64,25,8,25,0.83
2012-4-14,68.2,60.6,53.6,64.0,59.0,52.9,99,95,83,29.73,29.33,40,6,40,0.87
2012-4-15,71.2,68.6,62.1,64.9,62.4,59.4,96,81,68,29.36,29.25,33,14,33,0.08
2012-4-16,64.0,51.4,42.8,44.2,40.4,34.6,96,68,37,30.13,29.38,25,9,25,0.01
2012-4-17,73.6,55.7,38.3,49.1,43.4,36.9,97,68,36,30.19,29.97,22,4,22,0.01
2012-4-18,78.3,63.8,51.4,55.8,51.0,44.6,93,65,40,29.99,29.78,14,5,14,0.13
2012-4-19,68.5,56.8,44.1,58.5,51.7,40.1,96,84,63,29.78,29.55,21,6,21,0.22
2012-4-20,60.4,48.9,40.6,40.5,34.6,26.1,88,62,29,29.97,29.78,24,8,24,0.00
2012-4-21,72.7,53.0,36.3,42.7,35.6,20.7,94,58,17,29.96,29.75,17,4,17,0.00
2012-4-22,58.5,50.2,44.2,42.9,39.1,34.9,78,66,50,30.13,29.86,21,8,21,0.00
2012-4-23,72.9,54.3,35.6,43.2,34.5,19.8,95,55,14,30.12,29.80,13,3,13,0.00
2012-4-24,93.0,76.1,51.3,54.1,49.4,35.8,68,41,19,29.79,29.47,10,3,10,0.00
2012-4-25,93.9,74.4,56.5,62.7,49.5,33.3,91,49,14,29.67,29.40,15,4,15,0.00
2012-4-26,76.1,66.0,57.2,51.3,42.9,34.3,69,44,25,29.92,29.67,18,6,18,0.00
2012-4-27,59.0,53.7,45.9,44.5,35.8,28.6,91,52,34,29.93,29.56,43,17,43,0.45
2012-4-28,66.6,54.1,46.8,51.1,47.4,43.6,94,79,54,29.99,29.59,18,5,18,0.01
2012-4-29,51.4,49.3,47.7,49.5,47.6,45.1,99,94,88,29.98,29.85,20,6,20,0.28
2012-4-30,70.2,55.2,47.5,56.5,50.8,47.2,99,87,59,29.91,29.75,8,3,8,0.00
2012-5-1,85.1,70.0,55.4,68.1,61.0,53.4,97,75,45,29.77,29.52,17,5,17,0.00
2012-5-2,80.4,70.7,61.7,70.7,65.4,59.9,98,84,68,29.67,29.51,24,6,24,0.20
2012-5-3,84.6,72.7,62.1,69.8,65.7,59.8,98,80,56,29.78,29.63,26,4,26,0.20
2012-5-4,87.8,75.7,65.3,72.9,67.9,63.5,99,78,51,29.76,29.65,14,5,14,0.00
2012-5-5,89.6,79.3,70.5,73.7,71.2,69.4,99,78,53,29.76,29.65,16,5,16,0.00
2012-5-6,86.4,71.4,62.1,70.2,64.3,59.4,99,80,44,29.92,29.67,30,6,30,1.12
2012-5-7,73.2,63.5,57.0,61.8,49.0,41.5,99,62,34,29.99,29.83,24,6,24,0.04
2012-5-8,71.6,60.0,50.0,46.4,41.0,34.2,75,51,29,29.97,29.88,20,5,20,0.00
2012-5-9,74.8,58.9,45.5,49.1,42.7,35.8,86,58,27,30.00,29.85,13,3,13,0.00
2012-5-10,81.1,65.9,45.1,55.0,49.1,43.2,94,59,33,29.86,29.72,15,4,15,0.00
2012-5-11,81.0,68.5,56.7,58.3,50.8,36.0,89,56,33,30.11,29.77,18,4,18,0.00
2012-5-12,76.1,62.0,52.0,47.1,40.0,34.3,66,46,24,30.22,30.11,17,5,17,0.00
2012-5-13,80.8,65.0,50.5,45.8,34.0,17.0,69,37,10,30.19,30.05,18,3,18,0.00
2012-5-14,85.5,67.8,46.9,54.3,42.8,31.5,86,47,16,30.06,29.89,13,2,13,0.00
2012-5-15,91.4,72.8,56.1,55.7,40.3,16.5,77,39,10,29.94,29.82,18,6,18,0.00
2012-5-16,84.0,67.3,49.6,43.7,34.8,18.5,61,34,10,30.06,29.90,16,4,16,0.00
2012-5-17,87.3,71.9,57.6,54.4,48.7,42.1,65,46,26,29.93,29.73,18,5,18,0.00
2012-5-18,90.9,76.4,61.7,57.7,53.1,48.7,64,46,26,29.78,29.64,19,6,19,0.00
2012-5-19,87.6,76.5,68.2,63.2,58.0,53.3,69,54,34,29.75,29.67,16,6,16,0.00
2012-5-20,74.7,66.2,55.4,60.4,49.4,31.4,89,58,27,30.15,29.72,19,7,19,0.00
2012-5-21,83.7,65.6,44.6,47.3,39.2,30.2,83,43,17,30.19,30.00,10,2,10,0.00
2012-5-22,86.4,70.7,55.2,47.5,43.3,34.1,67,41,16,30.01,29.65,14,4,14,0.00
2012-5-23,92.7,77.9,63.5,62.8,54.5,45.7,57,45,31,29.65,29.35,21,7,21,0.00
2012-5-24,81.7,73.7,59.7,64.8,59.9,54.1,83,62,51,29.69,29.31,18,6,18,0.00
2012-5-25,79.3,65.4,55.6,62.1,56.3,48.2,94,75,36,29.86,29.69,24,6,24,0.05
2012-5-26,93.6,78.4,64.0,74.6,67.8,57.4,87,71,51,29.84,29.70,15,6,15,0.00
2012-5-27,94.6,83.0,73.2,71.1,63.1,53.8,78,54,34,29.73,29.56,21,7,21,0.00
2012-5-28,89.4,76.7,62.8,68.0,53.5,24.5,95,51,11,29.78,29.58,15,5,15,0.09
2012-5-29,81.9,68.3,54.7,50.6,42.1,28.0,83,44,16,29.92,29.75,16,4,16,0.00
2012-5-30,78.6,62.4,49.1,57.6,46.5,37.8,91,60,24,29.95,29.73,11,3,11,0.12
2012-5-31,61.2,55.0,48.2,55.1,50.6,45.2,98,85,66,29.94,29.76,20,6,20,0.20
2012-6-1,72.1,59.0,42.4,51.6,45.0,36.3,98,65,29,29.93,29.78,10,3,10,0.00
2012-6-2,84.4,68.0,50.7,56.0,46.1,33.3,85,51,18,29.78,29.70,15,4,15,0.00
2012-6-3,90.0,74.6,54.9,64.7,56.3,46.9,79,55,33,29.78,29.64,11,3,11,0.00
2012-6-4,91.8,78.3,65.5,64.6,60.2,50.8,86,57,26,29.82,29.67,17,5,17,0.00
2012-6-5,93.6,76.7,60.3,64.9,56.7,45.7,98,56,21,29.90,29.78,11,2,11,0.00
2012-6-6,88.7,75.8,63.9,58.7,55.9,52.1,77,52,30,29.97,29.82,11,4,11,0.00
2012-6-7,90.9,75.0,62.6,55.4,52.8,46.7,71,49,24,30.04,29.93,9,2,9,0.00
2012-6-8,91.8,75.9,59.9,57.3,52.2,44.6,78,47,21,29.97,29.77,13,3,13,0.00
2012-6-9,93.9,79.0,61.2,60.5,53.7,40.4,75,45,17,29.79,29.58,16,4,16,0.00
2012-6-10,94.8,80.6,62.8,66.1,62.3,58.1,99,56,33,29.73,29.56,27,6,27,2.03
2012-6-11,83.7,72.1,64.2,69.2,59.6,48.4,99,70,33,29.97,29.65,14,4,14,1.12
2012-6-12,80.4,68.3,56.8,54.6,47.5,40.7,77,49,25,30.14,29.97,12,4,12,0.00
2012-6-13,86.5,72.1,57.6,57.8,51.2,46.0,81,50,27,30.05,29.80,12,4,17,0.00
2012-6-14,91.8,78.3,67.5,67.8,62.8,54.9,84,60,40,29.83,29.70,23,6,23,0.01
2012-6-15,80.8,70.3,65.3,70.6,66.1,61.6,99,87,62,29.84,29.77,15,4,15,0.73
2012-6-16,85.5,72.0,63.7,71.2,67.4,63.4,99,87,60,29.91,29.81,21,3,21,0.44
2012-6-17,91.4,77.3,61.0,74.3,68.2,60.7,99,76,54,29.90,29.52,17,4,17,0.01
2012-6-18,95.7,84.9,76.3,73.7,69.8,66.5,79,62,44,29.61,29.48,23,9,23,0.00
2012-6-19,93.6,83.4,73.6,72.4,67.6,63.6,72,60,44,29.72,29.60,21,7,21,0.00
2012-6-20,88.3,78.2,64.2,72.0,68.3,62.8,99,73,57,29.91,29.68,24,7,24,0.60
2012-6-21,83.8,71.5,59.9,63.3,59.0,52.0,99,69,35,30.02,29.89,15,3,15,0.00
2012-6-22,88.9,73.9,57.2,66.1,58.1,46.6,99,63,29,30.01,29.86,8,2,8,0.00
2012-6-23,79.7,70.4,64.0,69.1,63.8,57.2,95,80,65,29.92,29.72,17,5,17,0.14
2012-6-24,96.1,83.0,70.0,76.3,71.4,67.8,93,70,46,29.85,29.77,12,4,12,0.00
2012-6-25,85.8,78.7,69.3,74.4,69.8,61.8,93,75,58,29.91,29.83,24,8,24,0.00
2012-6-26,91.6,77.1,63.3,70.0,60.3,51.3,77,57,43,29.89,29.67,14,5,14,0.00
2012-6-27,100.8,87.1,73.2,80.4,69.4,57.1,69,56,44,29.70,29.64,20,5,20,0.00
2012-6-28,102.6,88.7,76.3,81.8,75.9,70.4,85,67,47,29.83,29.70,11,3,11,0.00
2012-6-29,95.7,83.5,74.1,78.9,72.3,68.1,95,71,46,29.81,29.70,11,4,11,0.02
2012-6-30,100.8,83.2,68.9,77.2,71.8,66.7,95,71,38,29.79,29.70,11,3,11,0.00
2012-7-1,98.2,84.8,71.4,76.8,71.5,63.0,91,67,42,29.88,29.76,13,3,13,0.00
2012-7-2,95.9,85.0,73.8,73.7,70.3,66.8,80,63,42,29.89,29.78,15,3,15,0.00
2012-7-3,98.8,85.7,74.5,76.7,71.6,68.5,82,64,42,29.83,29.71,14,4,14,0.00
2012-7-4,99.0,87.2,75.2,72.9,68.5,64.4,77,56,35,29.81,29.74,11,4,11,0.00
2012-7-5,103.3,88.3,76.6,73.1,68.3,64.3,75,53,32,29.88,29.77,12,3,12,0.00
2012-7-6,103.1,88.1,72.5,72.2,68.3,61.9,80,55,29,29.91,29.85,13,2,13,0.00
2012-7-7,99.5,86.1,73.2,78.7,72.0,66.4,84,64,39,29.97,29.87,14,3,14,0.00
2012-7-8,88.2,79.4,71.4,72.6,67.6,63.1,86,68,45,30.03,29.94,17,5,17,0.00
2012-7-9,94.6,80.3,69.4,66.4,63.1,55.7,83,59,29,30.04,29.96,18,4,18,0.00
2012-7-10,89.8,77.4,62.1,66.2,57.5,45.9,91,55,22,30.06,29.97,16,4,16,0.00
2012-7-11,94.6,78.4,63.7,66.0,62.6,56.1,91,62,30,30.03,29.92,11,3,11,0.00
2012-7-12,99.3,82.6,66.6,66.9,63.0,57.9,81,55,27,29.95,29.86,10,2,10,0.00
2012-7-13,94.3,80.6,68.7,72.8,66.5,62.0,87,65,37,29.96,29.88,12,2,12,0.00
2012-7-14,100.8,82.0,65.5,73.1,67.0,59.8,98,65,28,29.97,29.85,11,2,11,0.00
2012-7-15,100.8,84.4,68.2,73.0,65.9,56.1,94,58,24,29.97,29.86,14,2,14,0.00
2012-7-16,97.3,83.7,68.4,70.0,66.3,62.4,83,58,36,29.89,29.73,16,3,16,0.00
2012-7-17,101.1,86.9,73.4,71.2,67.3,60.5,78,55,28,29.79,29.71,11,3,11,0.00
2012-7-18,100.4,86.6,76.3,75.7,69.3,64.2,82,58,35,29.80,29.73,15,3,15,0.00
2012-7-19,101.3,86.2,71.4,77.0,70.3,61.2,99,64,29,29.97,29.79,13,3,13,0.00
2012-7-20,96.6,82.1,67.5,70.1,64.2,50.7,96,60,22,30.04,29.95,13,3,13,0.00
2012-7-21,102.0,83.4,66.2,69.7,63.8,54.7,90,56,22,30.03,29.89,8,2,8,0.00
2012-7-22,104.5,87.3,70.7,68.3,62.8,53.5,75,48,20,29.98,29.85,17,4,17,0.00
2012-7-23,105.6,89.4,74.7,66.5,62.3,51.5,66,44,17,29.96,29.84,14,3,14,0.00
2012-7-24,104.5,90.4,76.6,69.0,64.8,55.7,68,46,21,29.86,29.70,16,4,16,0.00
2012-7-25,105.8,89.1,72.7,73.8,65.8,55.5,99,51,20,29.71,29.52,23,6,23,0.01
2012-7-26,97.0,78.2,70.0,74.3,69.8,55.3,99,79,35,29.82,29.66,25,3,25,0.00
2012-7-27,87.4,75.8,65.3,68.0,62.7,58.0,90,66,39,30.00,29.81,17,4,17,0.00
2012-7-28,92.1,76.7,62.8,66.6,62.4,55.8,98,66,31,30.07,29.89,14,4,14,0.01
2012-7-29,99.3,82.2,68.2,72.6,68.1,64.4,96,66,34,29.91,29.79,11,4,11,0.00
2012-7-30,98.8,81.9,71.8,75.7,72.2,64.7,99,76,35,29.89,29.78,11,2,11,0.00
2012-7-31,99.9,83.4,67.6,74.2,69.3,64.8,99,67,33,29.91,29.83,11,2,11,0.00
2012-8-1,103.1,85.2,69.4,70.2,65.2,57.7,84,55,25,29.88,29.73,9,2,9,0.00
2012-8-2,100.8,83.9,71.2,71.0,66.3,59.8,89,59,28,29.77,29.69,16,3,16,0.00
2012-8-3,101.3,85.0,70.9,73.3,69.7,65.0,94,64,35,29.80,29.67,11,2,11,0.00
2012-8-4,88.3,76.3,65.7,70.3,65.3,55.4,97,70,42,29.96,29.70,23,5,23,0.01
2012-8-5,88.5,72.3,58.6,61.5,55.5,46.1,94,60,25,30.15,29.96,12,3,12,0.00
2012-8-6,97.0,77.2,56.8,61.9,57.3,48.7,93,56,20,30.09,29.89,8,2,8,0.00
2012-8-7,102.0,83.6,65.5,69.8,60.9,52.9,89,51,22,29.94,29.82,15,2,15,0.01
2012-8-8,98.1,80.6,68.0,69.1,63.9,55.9,90,60,31,29.95,29.77,24,4,24,0.00
2012-8-9,88.5,74.7,63.7,67.9,60.7,52.9,99,66,30,29.93,29.84,20,6,20,0.00
2012-8-10,81.5,68.6,54.5,57.7,54.4,51.0,99,64,37,30.03,29.92,18,4,18,0.00
2012-8-11,86.4,70.5,53.1,61.7,56.2,50.9,99,65,31,30.02,29.87,11,2,11,0.00
2012-8-12,89.6,73.4,62.8,64.0,60.5,56.6,89,67,36,29.91,29.73,14,5,14,0.01
2012-8-13,83.3,69.8,61.5,63.8,58.0,49.8,99,70,33,30.00,29.83,16,5,16,0.00
2012-8-14,86.7,71.3,54.9,61.5,56.5,49.9,98,65,29,29.95,29.81,15,3,15,0.00
2012-8-15,93.0,75.6,58.1,67.7,62.2,57.8,99,67,37,29.84,29.65,17,4,17,0.00
2012-8-16,80.2,69.4,56.5,70.7,56.7,47.0,99,67,33,30.01,29.68,40,7,40,0.24
2012-8-17,84.6,66.6,47.8,57.2,44.1,25.0,97,53,12,30.05,29.93,14,3,14,0.00
2012-8-18,80.1,61.0,46.0,59.5,50.2,40.5,95,72,29,29.97,29.86,10,2,10,0.02
2012-8-19,84.6,66.3,49.8,56.1,50.2,43.2,99,63,25,29.99,29.89,14,3,14,0.00
2012-8-20,90.9,70.9,52.7,58.2,50.2,35.0,99,58,15,29.94,29.82,17,3,17,0.00
2012-8-21,95.0,76.1,57.7,56.3,51.3,40.0,81,47,16,29.96,29.87,12,3,12,0.00
2012-8-22,96.6,78.4,59.4,58.8,50.6,35.5,78,43,12,29.93,29.83,21,4,21,0.00
2012-8-23,94.1,79.4,62.4,59.3,53.0,47.7,71,42,21,29.91,29.78,21,4,21,0.00
2012-8-24,84.6,74.6,64.8,68.7,61.4,50.2,79,64,39,29.88,29.78,17,3,17,0.00
2012-8-25,73.2,68.8,65.5,71.1,67.7,64.2,99,96,76,29.84,29.79,14,4,14,2.42
2012-8-26,89.2,75.7,68.2,71.8,69.1,65.9,99,82,48,29.97,29.78,12,3,12,0.17
2012-8-27,96.6,78.3,61.9,71.8,65.9,57.4,99,71,32,30.09,29.97,7,1,7,0.00
2012-8-28,94.1,77.5,62.2,69.5,63.2,56.1,99,67,30,30.06,29.89,13,2,13,0.00
2012-8-29,95.4,79.2,64.8,68.9,62.5,57.4,86,60,30,29.92,29.79,19,3,19,0.00
2012-8-30,97.5,80.8,66.9,66.7,60.8,52.2,80,55,23,29.90,29.81,15,3,15,0.00
2012-8-31,95.2,77.5,63.7,70.2,66.1,60.4,93,71,40,29.93,29.86,9,2,9,0.00
2012-9-1,88.3,77.8,69.3,73.1,69.2,62.5,98,76,51,29.91,29.84,18,6,18,0.00
2012-9-2,93.9,77.0,61.0,71.0,65.0,57.2,93,69,41,29.90,29.79,8,2,8,0.00
2012-9-3,95.4,78.1,67.6,74.3,70.8,65.3,99,81,40,29.88,29.75,12,2,12,0.02
2012-9-4,98.1,82.3,67.1,76.3,72.1,66.8,99,74,45,29.82,29.67,10,2,10,0.00
2012-9-5,91.2,78.5,64.0,73.1,60.6,45.3,99,59,23,29.86,29.65,17,4,17,0.00
2012-9-6,90.1,73.2,53.6,61.8,54.4,47.3,91,56,26,29.93,29.72,13,3,13,0.00
2012-9-7,73.0,67.7,57.7,67.6,58.8,46.5,99,74,48,30.00,29.66,19,6,19,0.00
2012-9-8,84.7,66.1,46.4,51.3,44.0,29.9,93,52,14,30.06,29.85,20,4,20,0.00
2012-9-9,81.5,64.5,48.4,51.2,46.9,41.3,88,56,28,30.13,29.96,13,3,14,0.00
2012-9-10,85.1,66.6,47.1,55.0,50.3,45.9,99,62,27,30.06,29.86,18,4,18,0.00
2012-9-11,93.7,75.6,58.3,58.2,52.1,42.0,83,49,19,29.90,29.80,21,5,21,0.00
2012-9-12,86.0,70.6,55.4,62.6,55.8,39.7,99,61,37,30.14,29.85,27,6,27,0.27
2012-9-13,65.5,55.5,49.8,55.5,51.3,48.8,99,87,57,30.30,30.12,26,4,26,0.86
2012-9-14,80.4,61.6,46.6,55.0,46.7,32.1,99,67,19,30.29,30.19,10,2,12,0.00
2012-9-15,81.3,64.2,45.5,54.2,48.1,41.4,99,61,26,30.20,30.01,12,2,12,0.00
2012-9-16,78.3,64.5,53.2,63.1,57.7,48.8,99,80,55,30.01,29.83,15,2,15,0.00
2012-9-17,68.0,57.6,49.5,65.9,54.0,42.9,99,89,60,29.93,29.81,20,3,20,0.08
2012-9-18,72.5,56.4,41.0,46.8,39.0,25.7,98,59,19,30.02,29.87,11,3,11,0.00
2012-9-19,87.6,65.6,50.2,64.4,46.4,37.0,81,53,28,29.89,29.68,19,5,19,0.26
2012-9-20,77.0,62.3,50.9,49.0,39.5,24.5,69,46,16,29.97,29.86,12,2,12,0.00
2012-9-21,78.3,63.7,51.6,50.2,42.0,30.1,85,51,20,29.86,29.71,22,4,22,0.00
2012-9-22,65.8,53.0,41.2,42.3,33.1,24.9,75,49,22,30.17,29.82,21,6,21,0.00
2012-9-23,74.1,52.7,32.7,40.1,32.7,21.3,98,56,15,30.25,30.10,10,2,10,0.00
2012-9-24,79.0,59.5,41.5,55.3,42.9,34.4,83,58,21,30.11,29.74,9,2,9,0.00
2012-9-25,88.3,69.2,53.6,57.9,52.4,44.6,98,61,24,29.81,29.69,11,2,11,0.00
2012-9-26,78.1,63.0,52.0,48.9,40.1,28.0,71,47,17,30.03,29.78,14,3,14,0.00
2012-9-27,83.8,59.9,38.5,46.8,32.8,17.1,85,46,10,30.11,30.01,10,2,10,0.00
2012-9-28,80.1,59.2,41.9,53.5,43.5,31.2,97,61,20,30.12,30.01,9,1,9,0.00
2012-9-29,86.0,62.0,40.8,52.6,41.5,29.2,99,58,15,30.09,29.93,8,1,8,0.00
2012-9-30,88.2,65.7,46.6,49.1,43.0,31.2,90,52,15,29.94,29.79,11,2,11,0.00
2012-10-1,80.4,64.6,53.2,50.3,44.1,31.3,76,50,21,29.85,29.77,25,6,25,0.00
2012-10-2,81.5,61.1,43.5,47.8,40.1,34.4,81,49,22,29.87,29.76,12,3,12,0.00
2012-10-3,82.4,61.9,40.5,49.8,38.9,23.8,99,54,12,29.84,29.73,17,3,17,0.00
2012-10-4,62.6,53.6,47.5,47.1,38.4,31.1,86,58,36,30.18,29.82,19,6,19,0.00
2012-10-5,54.5,42.9,35.6,33.4,28.9,23.2,80,59,31,30.22,30.11,13,3,13,0.00
2012-10-6,51.1,39.8,28.8,27.5,24.9,21.7,76,56,37,30.23,30.14,16,4,16,0.00
2012-10-7,59.5,42.5,26.2,30.8,24.5,16.0,90,55,20,30.18,29.95,17,4,17,0.00
2012-10-8,71.8,52.1,35.8,38.6,32.5,25.9,85,53,19,29.95,29.72,24,7,24,0.00
2012-10-9,60.1,50.7,38.8,43.9,34.2,22.1,67,54,32,30.02,29.72,21,6,21,0.00
2012-10-10,65.3,47.8,30.9,32.7,27.0,19.8,83,50,19,30.12,29.97,14,4,14,0.00
2012-10-11,70.5,52.8,41.7,41.9,34.1,26.9,73,51,31,30.21,29.92,24,6,24,0.00
2012-10-12,61.3,49.9,36.7,48.2,28.9,18.7,83,47,22,30.25,29.91,21,8,21,0.00
2012-10-13,76.8,64.2,53.1,67.5,61.9,48.4,99,93,67,29.91,29.48,25,6,25,0.79
2012-10-14,68.0,58.3,49.3,60.4,48.9,37.8,99,74,35,29.86,29.47,28,7,28,0.78
2012-10-15,77.4,58.4,38.8,47.0,42.1,37.5,98,60,27,29.89,29.70,11,3,11,0.00
2012-10-16,79.7,64.5,53.6,51.8,48.6,44.1,85,59,29,29.70,29.34,17,6,17,0.00
2012-10-17,65.5,58.4,49.3,56.9,44.7,28.9,97,62,35,29.49,29.26,23,7,23,0.07
2012-10-18,52.5,47.0,43.2,43.8,34.8,25.2,96,66,40,29.47,29.38,30,14,30,0.33
2012-10-19,48.6,44.7,42.6,43.8,42.0,40.7,98,90,81,29.71,29.44,19,8,19,0.05
2012-10-20,68.5,52.1,36.0,45.8,41.8,35.5,99,72,37,29.74,29.61,11,3,11,0.00
2012-10-21,83.5,65.0,48.4,65.5,55.3,43.6,88,72,49,29.70,29.62,16,5,16,0.00
2012-10-22,81.9,69.3,62.6,71.6,65.0,55.9,99,87,54,29.70,29.63,14,4,14,0.86
2012-10-23,82.8,68.7,57.0,67.8,63.3,56.8,99,85,55,29.70,29.55,17,4,17,0.00
2012-10-24,79.2,67.8,54.9,68.5,64.3,54.6,99,90,61,29.67,29.57,17,5,17,0.00
2012-10-25,54.9,42.2,36.3,54.2,39.0,28.0,99,88,71,30.20,29.50,103,12,103,0.26
2012-10-26,47.3,36.5,29.3,30.2,28.0,26.2,92,72,49,30.36,30.18,18,5,18,0.00
2012-10-27,50.7,37.9,27.3,31.8,27.2,24.5,92,67,41,30.29,30.14,9,2,9,0.00
2012-10-28,55.9,41.1,30.9,31.3,28.8,27.0,90,65,36,30.22,30.11,11,3,11,0.00
2012-10-29,60.3,45.5,38.5,32.4,28.9,24.9,71,53,33,30.17,30.01,19,6,19,0.00
2012-10-30,57.7,43.1,32.2,32.8,28.0,14.3,90,59,19,30.03,29.90,15,4,15,0.00
2012-10-31,63.0,45.6,31.8,35.5,31.3,24.4,92,61,25,29.95,29.86,8,2,8,0.00
2012-11-1,69.3,50.1,37.4,44.6,38.9,33.9,92,68,35,29.88,29.82,16,3,16,0.00
2012-11-2,55.0,43.7,35.8,35.1,31.8,28.6,87,65,38,29.93,29.81,19,8,19,0.00
2012-11-3,61.3,43.9,30.0,37.2,32.0,28.8,97,66,32,30.08,29.93,11,3,11,0.00
2012-11-4,61.2,47.0,35.8,45.8,38.0,31.8,99,74,39,30.07,29.89,13,3,13,0.08
2012-11-5,45.7,42.8,41.2,45.2,41.8,40.2,99,96,89,30.01,29.87,17,4,17,0.13
2012-11-6,58.8,46.8,39.4,43.8,37.7,31.8,99,74,38,29.95,29.82,21,7,21,0.01
2012-11-7,59.2,43.9,33.3,37.5,33.7,31.2,93,69,38,30.05,29.92,12,4,12,0.00
2012-11-8,69.6,51.4,37.4,40.7,36.8,33.3,86,61,29,29.96,29.75,18,6,18,0.00
2012-11-9,70.5,57.3,45.1,59.0,48.4,39.3,88,73,53,29.78,29.60,14,5,14,0.00
2012-11-10,75.6,67.9,60.8,59.5,57.5,53.8,94,70,53,29.60,29.44,30,12,30,0.13
2012-11-11,60.8,33.4,22.6,59.4,29.4,17.6,99,86,62,30.03,29.52,20,3,20,0.76
2012-11-12,42.3,30.0,21.4,22.8,19.3,16.4,82,66,41,30.26,30.03,19,4,19,0.02
2012-11-13,57.4,38.6,20.8,33.4,26.2,18.1,90,64,28,30.26,30.15,11,3,11,0.00
2012-11-14,60.3,46.2,34.9,34.1,29.5,21.4,84,56,24,30.22,30.10,17,5,17,0.00
2012-11-15,66.6,48.0,35.8,37.1,32.6,29.3,85,57,27,30.29,30.09,11,4,11,0.00
2012-11-16,61.5,42.7,26.1,36.7,31.5,25.1,99,69,34,30.33,30.20,8,3,8,0.00
2012-11-17,62.2,49.4,38.1,37.8,34.0,29.0,87,59,30,30.22,30.09,19,6,19,0.00
2012-11-18,62.8,53.5,45.5,38.4,33.7,30.6,59,48,31,30.10,29.97,16,7,16,0.00
2012-11-19,55.2,55.2,55.2,37.4,37.4,37.4,51,51,51,29.99,29.99,7,7,14,0.00
2012-11-20,55.2,55.2,55.2,37.4,37.4,37.4,51,51,51,29.99,29.99,7,7,14,0.00
2012-11-21,55.2,55.2,55.2,37.4,37.4,37.4,51,51,51,29.99,29.99,7,7,14,0.00
2012-11-22,55.2,55.2,55.2,37.4,37.4,37.4,51,51,51,29.99,29.99,7,7,14,0.00
2012-11-23,55.2,55.2,55.2,37.4,37.4,37.4,51,51,51,29.99,29.99,7,7,14,0.00
2012-11-24,55.2,55.2,55.2,37.4,37.4,37.4,51,51,51,29.99,29.99,7,7,14,0.00
2012-11-25,55.2,55.2,55.2,37.4,37.4,37.4,51,51,51,29.99,29.99,7,7,14,0.00
2012-11-26,55.2,55.2,55.2,37.4,37.4,37.4,51,51,51,29.99,29.99,7,7,14,0.00
2012-11-27,55.2,55.2,55.2,37.4,37.4,37.4,51,51,51,29.99,29.99,7,7,14,0.00
2012-11-28,55.2,55.2,55.2,37.4,37.4,37.4,51,51,51,29.99,29.99,7,7,14,0.00
2012-11-29,55.2,55.2,55.2,37.4,37.4,37.4,51,51,51,29.99,29.99,7,7,14,0.00
2012-11-30,55.2,55.2,55.2,37.4,37.4,37.4,51,51,51,29.99,29.99,7,7,14,0.00
2012-12-1,55.2,55.2,55.2,37.4,37.4,37.4,51,51,51,29.99,29.99,7,7,14,0.00
2012-12-2,55.2,55.2,55.2,37.4,37.4,37.4,51,51,51,29.99,29.99,7,7,14,0.00
2012-12-3,55.2,55.2,55.2,37.4,37.4,37.4,51,51,51,29.99,29.99,7,7,14,0.00
2012-12-4,55.2,55.2,55.2,37.4,37.4,37.4,51,51,51,29.99,29.99,7,7,14,0.00
2012-12-5,55.2,55.2,55.2,37.4,37.4,37.4,51,51,51,29.99,29.99,7,7,14,0.00
2012-12-6,55.2,55.2,55.2,37.4,37.4,37.4,51,51,51,29.99,29.99,7,7,14,0.00
2012-12-7,55.2,55.2,55.2,37.4,37.4,37.4,51,51,51,29.99,29.99,7,7,14,0.00
2012-12-8,55.2,55.2,55.2,37.4,37.4,37.4,51,51,51,29.99,29.99,7,7,14,0.00
2012-12-9,55.2,55.2,55.2,37.4,37.4,37.4,51,51,51,29.99,29.99,7,7,14,0.00
2012-12-10,55.2,55.2,55.2,37.4,37.4,37.4,51,51,51,29.99,29.99,7,7,14,0.00
2012-12-11,55.2,55.2,55.2,37.4,37.4,37.4,51,51,51,29.99,29.99,7,7,14,0.00
2012-12-12,55.2,55.2,55.2,37.4,37.4,37.4,51,51,51,29.99,29.99,7,7,14,0.00
2012-12-13,55.2,55.2,55.2,37.4,37.4,37.4,51,51,51,29.99,29.99,7,7,14,0.00
2012-12-14,55.2,55.2,55.2,37.4,37.4,37.4,51,51,51,29.99,29.99,7,7,14,0.00
2012-12-15,55.2,55.2,55.2,37.4,37.4,37.4,51,51,51,29.99,29.99,7,7,14,0.00
2012-12-16,55.2,55.2,55.2,37.4,37.4,37.4,51,51,51,29.99,29.99,7,7,14,0.00
2012-12-17,55.2,55.2,55.2,37.4,37.4,37.4,51,51,51,29.99,29.99,7,7,14,0.00
2012-12-18,55.2,55.2,55.2,37.4,37.4,37.4,51,51,51,29.99,29.99,7,7,14,0.00
2012-12-19,55.2,55.2,55.2,37.4,37.4,37.4,51,51,51,29.99,29.99,7,7,14,0.00
2012-12-20,55.2,55.2,55.2,37.4,37.4,37.4,51,51,51,29.99,29.99,7,7,14,0.00
2012-12-21,55.2,55.2,55.2,37.4,37.4,37.4,51,51,51,29.99,29.99,7,7,14,0.00
2012-12-22,55.2,55.2,55.2,37.4,37.4,37.4,51,51,51,29.99,29.99,7,7,14,0.00
2012-12-23,55.2,55.2,55.2,37.4,37.4,37.4,51,51,51,29.99,29.99,7,7,14,0.00
2012-12-24,55.2,55.2,55.2,37.4,37.4,37.4,51,51,51,29.99,29.99,7,7,14,0.00
2012-12-25,55.2,55.2,55.2,37.4,37.4,37.4,51,51,51,29.99,29.99,7,7,14,0.00
2012-12-26,55.2,55.2,55.2,37.4,37.4,37.4,51,51,51,29.99,29.99,7,7,14,0.00
2012-12-27,55.2,55.2,55.2,37.4,37.4,37.4,51,51,51,29.99,29.99,7,7,14,0.00
2012-12-28,55.2,55.2,55.2,37.4,37.4,37.4,51,51,51,29.99,29.99,7,7,14,0.00
2012-12-29,55.2,55.2,55.2,37.4,37.4,37.4,51,51,51,29.99,29.99,7,7,14,0.00
2012-12-30,55.2,55.2,55.2,37.4,37.4,37.4,51,51,51,29.99,29.99,7,7,14,0.00
2012-12-31,55.2,55.2,55.2,37.4,37.4,37.4,51,51,51,29.99,29.99,7,7,14,0.00
2013-1-1,55.2,55.2,55.2,37.4,37.4,37.4,51,51,51,29.99,29.99,7,7,14,0.00